ADDS TAF Board (Experimental) INFO Settings
IDs: Format: Expanded Condensed

KMSP - Minneapolis-St Paul, MN, US

Issued at 0246 UTC 23 May 2015
Updated at: 0415 UTC 23 May 2015
Time0353Z 23/05Z 23/06Z 23/07Z 23/08Z 23/09Z 23/10Z 23/11Z 23/12Z 23/13Z 23/14Z 23/15Z 23/16Z 23/17Z
Type OBS PRVL PRVL PRVL PRVL PRVL PRVL PRVL PRVL PRVL PRVL PRVL PRVL PRVL
VIS 10 >6 >6 >6 >6 >6 >6 >6 >6 >6 >6 >6 >6 >6
CIG 250 250 250 250 250 250 250 250 150 150 150 150 150 60
Cover BKN BKN BKN BKN BKN BKN BKN BKN BKN BKN BKN BKN BKN OVC
FltCat VFR VFR VFR VFR VFR VFR VFR VFR VFR VFR VFR VFR VFR VFR
WX -- -- -- -- -- -- -- -- -- -- -- -- -- --
WDir 130 110 110 110 110 110 110 110 180 180 180 180 180 190
WSpd 5 3 3 3 3 3 3 3 5 5 5 5 5 10
WGst -- -- -- -- -- -- -- -- -- -- -- -- -- --
R04/22
XWnd -5 -3 -3 -3 -3 -3 -3 -3 -4 -4 -4 -4 -4 -6
HWnd 0 1 1 1 1 1 1 1 -4 -4 -4 -4 -4 -8
R12/30
XWnd -1 1 1 1 1 1 1 1 -4 -4 -4 -4 -4 -9
HWnd 5 3 3 3 3 3 3 3 3 3 3 3 3 4
R17/35
XWnd 3 3 3 3 3 3 3 3 -1 -1 -1 -1 -1 -3
HWnd 4 2 2 2 2 2 2 2 5 5 5 5 5 9

NOTE: TEMPO conditions in [brackets]. Keep in mind TEMPO conditions might be better (lower impact) than prevailing conditions.

Raw TAF
KMSP 230246Z 2303/2406 11003KT P6SM BKN250
  FM231200 18005KT P6SM SCT060 BKN150
  FM231700 19010KT P6SM BKN060 OVC120
  FM240100 13006KT P6SM OVC050


Raw METAR
KMSP 230353Z 13005KT 10SM BKN250 17/03 A3020 RMK AO2 SLP226 T01720033
KMSP 230253Z 05003KT 10SM BKN250 19/03 A3019 RMK AO2 SLP222 T01940028 53004
KMSP 230153Z 16003KT 10SM BKN250 21/01 A3018 RMK AO2 SLP220 T02110011

METAR Board
Radar Display
Forecast Discussion

TAF Board Legend

Potential Impact
Threat None Slight Moderate High
Visibility (sm) ≥5.1 5.1>X≥3 3>X≥1 <1
Ceiling (100 ft) ≥30.1 30.1>X≥10 10>X≥5 <5
Wind Speed (kt) <10 10≤X<20 20≤X<30 ≥30
Wind Gust (kt) <15 15≤X<25 25≤X<35 ≥35
Weather No Wx Reported VCTS,-TS,-FZRA,SN TS,FZRA +TS,+FZRA,+SN